Terminal Aerodrome Forecast
Issued by NWS Pittsburgh, PA

Current Version | Previous Version | Graphics & Text | Print | Product List | Glossary On
Versions: 1 2 3 4 5 6 7 8 9 10 11 12 13 14 15 16 17 18 19 20 21 22 23 24 25 26 27 28 29 30
000
FTUS41 KPBZ 292108 AAA
TAFPIT
TAF AMD
KPIT 292108Z 2921/3024 21008KT P6SM SCT080
     FM300700 14004KT P6SM VCSH BKN050
     FM300900 12004KT 5SM -RA BR OVC025
     FM301200 08006KT 2SM -RA OVC008
     FM301800 23010KT 3SM -SHRA OVC015
     FM302100 24010KT P6SM VCSH BKN020=

USA.gov is the U.S. government's official web portal to all federal, state and local government web resources and services.